Time;durP1;ratioP1;P1;durP2;ratioP2;P2;SDS_P1;SDS_P2;PMS_P1;PMS_P2;Temp;Humidity;BMP_temperature;BMP_pressure;BME280_temperature;BME280_humidity;BME280_pressure;Samples;Min_cycle;Max_cycle;Signal;HPM_P1;HPM_P2
2021/04/10 18:47:32;;;;;;;;;;;;;;;;;;5127701;27;19912;-46
2021/04/10 18:49:58;;;;;;;;;;;;;;;;;;5127857;27;19918;-47
2021/04/10 18:52:24;;;;;;;;;;;;;;;;;;5027726;27;20023;-46
2021/04/10 18:56:34;;;;;;;;;;;;;;;;;;5067517;27;19919;-68
2021/04/10 18:59:00;;;;;;;;;;;;;;;;;;5024482;28;63156;-67
2021/04/10 19:01:26;;;;;;;;;;;;;;;;;;5025744;28;19921;-66
2021/04/10 19:03:52;;;;;;;;;;;;;;;;;;5025855;28;19914;-66
2021/04/10 19:06:18;;;;;;;;;;;;;;;;;;5027578;28;19909;-66
2021/04/10 19:08:44;;;;;;;;;;;;;;;;;;5020737;28;19914;-66
2021/04/10 19:11:10;;;;;;;;;;;;;;;;;;5027851;28;19910;-66
2021/04/10 19:13:36;;;;;;;;;;;;;;;;;;5025009;28;19913;-66
2021/04/10 19:16:02;;;;;;;;;;;;;;;;;;5027560;28;20410;-66
2021/04/10 19:18:27;;;;;;;;;;;;;;;;;;5060004;28;19909;-66
2021/04/10 19:20:53;;;;;;;;;;;;;;;;;;5027887;28;19996;-68
2021/04/10 19:23:21;;;;;;;;;;;;;;;;;;5028029;28;19916;-67
2021/04/10 19:25:47;;;;;;;;;;;;;;;;;;5027617;28;19948;-67
2021/04/10 19:28:12;;;;;;;;;;;;;;;;;;5048526;28;20023;-67
2021/04/10 19:30:38;;;;;;;;;;;;;;;;;;5008072;28;19947;-67
2021/04/10 19:33:04;;;;;;;;;;;;;;;;;;5008278;28;19968;-66
2021/04/10 19:35:30;;;;;;;;;;;;;;;;;;5007022;28;20005;-67
2021/04/10 19:37:58;;;;;;;;;;;;;;;;;;5007708;28;19910;-66
2021/04/10 19:40:23;;;;;;;;;;;;;;;;;;5007604;28;19914;-67
2021/04/10 19:42:51;;;;;;;;;;;;;;;;;;5023260;28;19918;-68
2021/04/10 19:45:17;;;;;;;;;;;;;;;;;;5027370;28;19921;-67
2021/04/10 19:47:43;;;;;;;;;;;;;;;;;;5027192;28;19914;-67
2021/04/10 19:50:09;;;;;;;;;;;;;;;;;;5026380;28;19924;-67
2021/04/10 19:52:35;;;;;;;;;;;;;;;;;;5027528;28;19987;-67
2021/04/10 19:55:01;;;;;;;;;;;;;;;;;;5028367;28;20055;-67
2021/04/10 19:57:27;;;;;;;;;;;;;;;;;;5028617;28;19921;-67
2021/04/10 19:59:53;;;;;;;;;;;;;;;;;;5026911;28;19913;-67
2021/04/10 20:02:19;;;;;;;;;;;;;;;;;;5027175;28;19945;-68
2021/04/10 20:04:44;;;;;;;;;;;;;;;;;;5027906;28;20455;-68
2021/04/10 20:07:11;;;;;;;;;;;;;;;;;;5019592;28;19909;-68
2021/04/10 20:09:39;;;;;;;;;;;;;;;;;;5013241;28;19993;-68
2021/04/10 20:12:05;;;;;;;;;;;;;;;;;;5014050;28;19909;-68
2021/04/10 20:14:31;;;;;;;;;;;;;;;;;;5015156;28;19924;-69
2021/04/10 20:16:57;;;;;;;;;;;;;;;;;;5015011;28;20404;-68
2021/04/10 20:19:23;;;;;;;;;;;;;;;;;;5014435;28;19964;-68
2021/04/10 20:21:49;;;;;;;;;;;;;;;;;;5014853;28;19910;-68
2021/04/10 20:24:15;;;;;;;;;;;;;;;;;;5013646;28;19916;-68
2021/04/10 20:26:42;;;;;;;;;;;;;;;;;;5014800;28;19909;-66
2021/04/10 20:29:08;;;;;;;;;;;;;;;;;;5014868;28;20407;-69
2021/04/10 20:31:34;;;;;;;;;;;;;;;;;;5014387;28;19910;-68
2021/04/10 20:34:01;;;;;;;;;;;;;;;;;;5033707;28;19913;-67
2021/04/10 20:36:27;;;;;;;;;;;;;;;;;;4994919;28;19925;-68
2021/04/10 20:38:53;;;;;;;;;;;;;;;;;;4995067;28;19910;-68
2021/04/10 20:41:19;;;;;;;;;;;;;;;;;;5007859;28;19925;-67
2021/04/10 20:43:45;;;;;;;;;;;;;;;;;;5014841;28;19918;-68
2021/04/10 20:46:11;;;;;;;;;;;;;;;;;;5013787;28;19936;-68
2021/04/10 20:48:37;;;;;;;;;;;;;;;;;;5013822;28;19944;-70
2021/04/10 20:51:03;;;;;;;;;;;;;;;;;;5013889;28;20004;-68
2021/04/10 20:53:28;;;;;;;;;;;;;;;;;;5014372;28;20007;-68
2021/04/10 20:55:54;;;;;;;;;;;;;;;;;;5012846;28;20289;-68
2021/04/10 20:58:20;;;;;;;;;;;;;;;;;;5014016;28;19914;-67
2021/04/10 21:00:46;;;;;;;;;;;;;;;;;;5013902;28;19913;-69
2021/04/10 21:03:12;;;;;;;;;;;;;;;;;;5013823;28;19945;-68
2021/04/10 21:05:38;;;;;;;;;;;;;;;;;;5014228;28;19932;-68
2021/04/10 21:08:04;;;;;;;;;;;;;;;;;;5013995;28;20373;-71
2021/04/10 21:10:33;;;;;;;;;;;;;;;;;;5013787;28;20011;-68
2021/04/10 21:12:59;;;;;;;;;;;;;;;;;;5014186;28;20376;-68
2021/04/10 21:15:25;;;;;;;;;;;;;;;;;;5013877;28;20024;-68
2021/04/10 21:17:50;;;;;;;;;;;;;;;;;;5012878;28;19956;-68
2021/04/10 21:20:16;;;;;;;;;;;;;;;;;;5013764;28;19906;-68
2021/04/10 21:22:42;;;;;;;;;;;;;;;;;;5012321;28;19914;-67
2021/04/10 21:25:08;;;;;;;;;;;;;;;;;;5005245;28;19920;-68
2021/04/10 21:27:34;;;;;;;;;;;;;;;;;;5011944;28;19916;-66
2021/04/10 21:30:00;;;;;;;;;;;;;;;;;;5007422;28;19953;-68
2021/04/10 21:32:26;;;;;;;;;;;;;;;;;;5010195;28;19917;-66
2021/04/10 21:34:52;;;;;;;;;;;;;;;;;;5012066;28;19925;-66
2021/04/10 21:37:18;;;;;;;;;;;;;;;;;;5011609;28;19925;-67
2021/04/10 21:39:43;;;;;;;;;;;;;;;;;;5013268;28;19917;-68
2021/04/10 21:42:09;;;;;;;;;;;;;;;;;;5013426;28;19920;-68
2021/04/10 21:44:36;;;;;;;;;;;;;;;;;;5011782;28;20400;-69
2021/04/10 21:47:02;;;;;;;;;;;;;;;;;;5013074;28;20361;-68
2021/04/10 21:49:28;;;;;;;;;;;;;;;;;;5013516;28;19941;-67
2021/04/10 21:51:54;;;;;;;;;;;;;;;;;;5003479;28;20455;-68
2021/04/10 21:54:20;;;;;;;;;;;;;;;;;;5013121;28;19916;-66
2021/04/10 21:56:47;;;;;;;;;;;;;;;;;;5014547;28;19914;-68
2021/04/10 21:59:13;;;;;;;;;;;;;;;;;;5019239;28;19917;-68
2021/04/10 22:01:39;;;;;;;;;;;;;;;;;;5019569;28;20274;-68
2021/04/10 22:04:05;;;;;;;;;;;;;;;;;;5018317;28;19912;-68
2021/04/10 22:06:31;;;;;;;;;;;;;;;;;;5019502;28;19913;-68
2021/04/10 22:08:57;;;;;;;;;;;;;;;;;;5015118;28;19913;-68
2021/04/10 22:11:24;;;;;;;;;;;;;;;;;;5017555;28;19910;-68
2021/04/10 22:13:50;;;;;;;;;;;;;;;;;;5017129;28;19909;-68
2021/04/10 22:16:15;;;;;;;;;;;;;;;;;;5019680;28;19914;-69
2021/04/10 22:18:41;;;;;;;;;;;;;;;;;;5019349;28;20326;-69
